Time;durP1;ratioP1;P1;durP2;ratioP2;P2;SDS_P1;SDS_P2;PMS_P1;PMS_P2;Temp;Humidity;BMP_temperature;BMP_pressure;BME280_temperature;BME280_humidity;BME280_pressure;Samples;Min_cycle;Max_cycle;Signal;HPM_P1;HPM_P2
2022/08/13 00:01:36;;;;;;;4.70;1.77;;;16.60;95.40;;;;;;4993405;28;20462;-70
2022/08/13 00:04:05;;;;;;;1.63;1.53;;;16.50;95.50;;;;;;4993683;28;20470;-70
2022/08/13 00:07:03;;;;;;;1.30;1.20;;;16.50;95.50;;;;;;4993205;28;20482;-70
2022/08/13 00:09:30;;;;;;;1.83;1.63;;;16.50;95.60;;;;;;4993325;28;20474;-70
2022/08/13 00:14:41;;;;;;;1.77;1.60;;;16.40;95.80;;;;;;4992965;28;20446;-70
2022/08/13 00:17:12;;;;;;;1.80;1.60;;;16.30;95.70;;;;;;4993500;28;20549;-70
2022/08/13 00:19:43;;;;;;;2.43;1.57;;;16.30;95.90;;;;;;4993220;28;20546;-70
2022/08/13 00:22:12;;;;;;;1.57;1.47;;;16.20;96.30;;;;;;4993412;28;20458;-71
2022/08/13 00:24:39;;;;;;;1.90;1.70;;;16.20;96.20;;;;;;4992718;28;20951;-70
2022/08/13 00:27:06;;;;;;;1.70;1.60;;;16.20;96.10;;;;;;4993226;28;20537;-70
2022/08/13 00:29:33;;;;;;;1.70;1.60;;;16.20;96.40;;;;;;4993430;28;20470;-70
2022/08/13 00:32:00;;;;;;;1.63;1.53;;;16.10;96.40;;;;;;4993102;28;20493;-71
2022/08/13 00:34:27;;;;;;;2.13;1.87;;;16.10;96.40;;;;;;4992499;28;20973;-71
2022/08/13 00:36:55;;;;;;;1.80;1.37;;;16.10;96.50;;;;;;4993157;28;20487;-70
2022/08/13 00:39:22;;;;;;;1.80;1.70;;;16.10;96.60;;;;;;4992887;28;20469;-70
2022/08/13 00:41:49;;;;;;;1.67;1.53;;;16.00;96.50;;;;;;4993260;28;20891;-70
2022/08/13 00:44:17;;;;;;;1.63;1.53;;;16.00;96.70;;;;;;4992002;28;20983;-71
2022/08/13 00:46:45;;;;;;;1.57;1.47;;;15.90;96.80;;;;;;4992773;28;20517;-71
2022/08/13 00:49:13;;;;;;;2.30;2.00;;;15.90;96.70;;;;;;4993180;28;20466;-71
2022/08/13 00:51:41;;;;;;;1.73;1.60;;;15.80;96.60;;;;;;4993151;28;20894;-71
2022/08/13 00:54:12;;;;;;;1.90;1.70;;;15.80;96.60;;;;;;4992363;28;20466;-71
2022/08/13 00:56:38;;;;;;;1.67;1.53;;;15.70;96.90;;;;;;4992523;28;20605;-71
2022/08/13 00:59:10;;;;;;;1.90;1.80;;;15.70;97.00;;;;;;4993046;28;20513;-70
2022/08/13 01:01:38;;;;;;;1.80;1.70;;;15.70;97.00;;;;;;4992572;28;20534;-71
2022/08/13 01:04:06;;;;;;;2.00;1.90;;;15.60;97.00;;;;;;4991459;28;20474;-71
2022/08/13 01:06:33;;;;;;;1.87;1.77;;;15.60;97.20;;;;;;4992152;28;20486;-73
2022/08/13 01:09:00;;;;;;;2.03;1.47;;;15.60;97.20;;;;;;4992562;28;20462;-71
2022/08/13 01:11:30;;;;;;;1.80;1.70;;;15.60;97.40;;;;;;4992582;28;20490;-70
2022/08/13 01:13:58;;;;;;;1.50;1.40;;;15.60;97.60;;;;;;4991781;28;20469;-70
2022/08/13 01:16:28;;;;;;;1.90;1.57;;;15.50;97.60;;;;;;4992017;28;20521;-70
2022/08/13 01:18:55;;;;;;;2.20;1.80;;;15.50;97.60;;;;;;4992762;28;20463;-70
2022/08/13 01:21:24;;;;;;;2.20;2.00;;;15.50;97.60;;;;;;4992110;28;20513;-70
2022/08/13 01:23:54;;;;;;;2.13;1.93;;;15.40;97.60;;;;;;4991599;28;20463;-70
2022/08/13 01:26:24;;;;;;;1.97;1.80;;;15.40;97.70;;;;;;4992038;28;20486;-71
2022/08/13 01:28:52;;;;;;;1.83;1.60;;;15.40;97.70;;;;;;4992507;28;21001;-70
2022/08/13 01:31:20;;;;;;;1.53;1.30;;;15.40;97.70;;;;;;4992344;28;20486;-70
2022/08/13 01:33:49;;;;;;;2.30;2.00;;;15.30;97.80;;;;;;4991991;28;20874;-71
2022/08/13 01:36:16;;;;;;;2.20;2.00;;;15.30;97.90;;;;;;4992197;28;20466;-70
2022/08/13 01:38:44;;;;;;;4.70;2.03;;;15.30;98.00;;;;;;4992081;28;20466;-69
2022/08/13 01:41:12;;;;;;;1.80;1.70;;;15.30;98.00;;;;;;4992374;28;20467;-71
2022/08/13 01:43:41;;;;;;;1.70;1.60;;;15.20;98.00;;;;;;4991853;28;20466;-70
2022/08/13 01:46:09;;;;;;;1.80;1.70;;;15.20;98.10;;;;;;4992075;28;20966;-72
2022/08/13 01:51:25;;;;;;;1.80;1.70;;;15.20;98.30;;;;;;4991635;28;20484;-72
2022/08/13 01:53:54;;;;;;;1.90;1.63;;;15.10;98.40;;;;;;4991291;28;20537;-70
2022/08/13 01:56:23;;;;;;;2.00;1.80;;;15.20;98.50;;;;;;4990529;28;20989;-72
2022/08/13 01:58:50;;;;;;;2.23;1.80;;;15.10;98.80;;;;;;4991801;28;20525;-72
2022/08/13 02:01:18;;;;;;;2.13;1.93;;;15.10;99.00;;;;;;4991558;28;20463;-72
2022/08/13 02:03:48;;;;;;;1.70;1.60;;;15.10;99.10;;;;;;4991221;28;20466;-72
2022/08/13 02:06:15;;;;;;;1.73;1.63;;;15.00;99.20;;;;;;4990978;28;20548;-74
2022/08/13 02:08:42;;;;;;;1.80;1.70;;;15.10;99.20;;;;;;4991403;28;20463;-71
2022/08/13 02:11:10;;;;;;;2.17;1.77;;;15.00;99.30;;;;;;4991822;28;20490;-70
2022/08/13 02:13:39;;;;;;;1.83;1.73;;;15.00;99.40;;;;;;4991003;28;20517;-70
2022/08/13 02:16:07;;;;;;;2.20;2.00;;;15.00;99.30;;;;;;4991216;28;20494;-73
2022/08/13 02:18:33;;;;;;;2.03;1.93;;;15.00;99.40;;;;;;4991320;28;20459;-70
2022/08/13 02:21:02;;;;;;;1.70;1.60;;;14.90;99.40;;;;;;4991337;28;20966;-70
2022/08/13 02:23:32;;;;;;;2.00;1.80;;;14.90;99.50;;;;;;4990658;28;20521;-70
2022/08/13 02:26:00;;;;;;;1.77;1.50;;;14.90;99.50;;;;;;4991474;28;20541;-73
2022/08/13 02:28:28;;;;;;;1.50;1.40;;;14.90;99.70;;;;;;4990944;28;20845;-71
2022/08/13 02:30:57;;;;;;;2.03;1.60;;;14.80;99.70;;;;;;4991308;28;20529;-71
2022/08/13 02:33:24;;;;;;;2.13;1.87;;;14.90;99.90;;;;;;4990581;28;20498;-71
2022/08/13 02:35:51;;;;;;;3.27;2.20;;;14.80;99.90;;;;;;4990819;28;20469;-70
2022/08/13 02:38:18;;;;;;;2.27;2.00;;;14.80;99.90;;;;;;4990867;28;20487;-70
2022/08/13 02:43:31;;;;;;;1.63;1.53;;;14.70;99.90;;;;;;4990431;28;20817;-72
2022/08/13 02:46:01;;;;;;;2.20;1.90;;;14.70;99.90;;;;;;4990401;28;21037;-73
2022/08/13 02:48:29;;;;;;;1.83;1.73;;;14.70;99.90;;;;;;4990732;28;20473;-72
2022/08/13 02:50:57;;;;;;;2.60;1.80;;;14.60;99.90;;;;;;4990967;28;20473;-71
2022/08/13 02:53:25;;;;;;;2.47;2.27;;;14.60;99.90;;;;;;4990169;28;20987;-72
2022/08/13 02:55:52;;;;;;;1.93;1.80;;;14.60;99.90;;;;;;4990763;28;20842;-71
2022/08/13 02:58:19;;;;;;;2.10;1.90;;;14.50;99.90;;;;;;4990392;28;20474;-72
2022/08/13 03:00:48;;;;;;;2.53;1.77;;;14.50;99.90;;;;;;4990962;28;20471;-72
2022/08/13 03:03:17;;;;;;;1.90;1.80;;;14.50;99.90;;;;;;4990496;28;20458;-72
2022/08/13 03:05:45;;;;;;;1.87;1.77;;;14.40;99.90;;;;;;4990164;28;20818;-72
2022/08/13 03:08:12;;;;;;;1.97;1.77;;;14.40;99.90;;;;;;4993668;28;20994;-73
2022/08/13 03:10:41;;;;;;;2.07;1.97;;;14.40;99.90;;;;;;4994563;28;20977;-71
2022/08/13 03:13:17;;;;;;;1.90;1.80;;;14.40;99.90;;;;;;4994743;28;20556;-72
2022/08/13 03:15:45;;;;;;;2.20;2.00;;;14.40;99.90;;;;;;4994171;28;20473;-72
2022/08/13 03:18:12;;;;;;;1.90;1.80;;;14.40;99.90;;;;;;4994508;28;20991;-73
2022/08/13 03:20:41;;;;;;;2.30;2.10;;;14.40;99.90;;;;;;4994868;28;20454;-72
2022/08/13 03:23:09;;;;;;;1.90;1.80;;;14.40;99.90;;;;;;4995010;28;20458;-71
2022/08/13 03:25:36;;;;;;;2.27;2.00;;;14.30;99.90;;;;;;4994074;28;20473;-71
2022/08/13 03:28:04;;;;;;;1.73;1.63;;;14.30;99.90;;;;;;4994456;28;20510;-72
2022/08/13 03:30:34;;;;;;;1.67;1.57;;;14.30;99.90;;;;;;4994805;28;20461;-73
2022/08/13 03:33:05;;;;;;;1.87;1.70;;;14.30;99.90;;;;;;4994643;28;20491;-71
2022/08/13 03:35:32;;;;;;;2.37;2.17;;;14.30;99.90;;;;;;4993650;28;21062;-71
2022/08/13 03:38:01;;;;;;;2.43;1.70;;;14.30;99.90;;;;;;4994095;28;20998;-71
2022/08/13 03:41:00;;;;;;;1.80;1.70;;;14.30;99.90;;;;;;4994335;28;20462;-71
2022/08/13 03:43:17;;;;;;;3.00;2.40;;;14.30;99.90;;;;;;4994176;28;20455;-71
2022/08/13 03:45:44;;;;;;;2.70;2.00;;;14.30;99.90;;;;;;4994145;28;20494;-71
2022/08/13 03:48:13;;;;;;;2.17;1.97;;;14.20;99.90;;;;;;5064314;22;20554;-93
2022/08/13 03:50:40;;;;;;;2.30;2.10;;;14.20;99.90;;;;;;5022083;28;20963;-92
2022/08/13 03:53:09;;;;;;;2.13;1.87;;;14.20;99.90;;;;;;5016487;28;20974;-93
2022/08/13 03:55:39;;;;;;;1.97;1.77;;;14.20;99.90;;;;;;5016331;28;20466;-93
2022/08/13 03:58:06;;;;;;;2.27;2.07;;;14.20;99.90;;;;;;5015321;28;20588;-91
2022/08/13 04:00:35;;;;;;;2.77;2.10;;;14.20;99.90;;;;;;5015398;28;20987;-92
2022/08/13 04:03:13;;;;;;;2.20;2.00;;;14.20;99.90;;;;;;5015456;28;20532;-91
2022/08/13 04:05:40;;;;;;;2.03;1.83;;;14.20;99.90;;;;;;5015178;28;21029;-91
2022/08/13 04:08:09;;;;;;;2.23;2.03;;;14.10;99.90;;;;;;5015472;28;20497;-91
2022/08/13 04:10:36;;;;;;;1.67;1.57;;;14.10;99.90;;;;;;5016402;28;20469;-91
2022/08/13 04:13:03;;;;;;;2.33;2.13;;;14.10;99.90;;;;;;5015214;28;20524;-91
2022/08/13 04:15:30;;;;;;;1.90;1.70;;;14.10;99.90;;;;;;5014862;28;20469;-91
2022/08/13 04:17:57;;;;;;;2.13;1.93;;;14.10;99.90;;;;;;5014808;28;20482;-92
2022/08/13 04:20:25;;;;;;;2.07;1.73;;;14.10;99.90;;;;;;5014433;28;20470;-92
2022/08/13 04:22:52;;;;;;;2.90;2.23;;;14.10;99.90;;;;;;5014962;28;20486;-91
2022/08/13 04:25:20;;;;;;;1.90;1.80;;;14.00;99.90;;;;;;5014539;28;20501;-90
2022/08/13 04:27:49;;;;;;;2.10;1.90;;;14.00;99.90;;;;;;5014894;28;20552;-91
2022/08/13 04:30:16;;;;;;;2.23;2.00;;;14.00;99.90;;;;;;5014830;28;20556;-91
2022/08/13 04:32:43;;;;;;;2.30;2.10;;;14.00;99.90;;;;;;5014513;28;20918;-91
2022/08/13 04:35:11;;;;;;;2.30;1.83;;;14.00;99.90;;;;;;5014481;28;20839;-93
2022/08/13 04:37:38;;;;;;;1.80;1.70;;;14.00;99.90;;;;;;5014674;28;20485;-91
2022/08/13 04:40:06;;;;;;;2.10;2.00;;;14.00;99.90;;;;;;5015870;28;20508;-91
2022/08/13 04:42:46;;;;;;;2.13;1.90;;;14.00;99.90;;;;;;5014807;28;20470;-91
2022/08/13 04:45:14;;;;;;;2.47;2.27;;;14.00;99.90;;;;;;5014658;28;20470;-91
2022/08/13 04:47:42;;;;;;;2.30;2.10;;;14.00;99.90;;;;;;5016479;28;20619;-94
2022/08/13 04:50:10;;;;;;;2.20;2.03;;;14.00;99.90;;;;;;5030195;28;20562;-90
2022/08/13 04:52:37;;;;;;;2.90;1.80;;;14.10;99.90;;;;;;5014733;28;20481;-90
2022/08/13 04:57:51;;;;;;;2.70;2.40;;;14.10;99.90;;;;;;5014020;28;20508;-91
2022/08/13 05:00:20;;;;;;;2.33;2.17;;;14.20;99.90;;;;;;5014335;28;20520;-91
2022/08/13 05:02:48;;;;;;;2.20;2.00;;;14.20;99.90;;;;;;5014268;28;20462;-91
2022/08/13 05:05:14;;;;;;;1.70;1.60;;;14.30;99.90;;;;;;5014540;28;20573;-91
2022/08/13 05:07:49;;;;;;;2.17;1.97;;;14.40;99.90;;;;;;5014443;28;20493;-91
2022/08/13 05:10:16;;;;;;;1.80;1.67;;;14.50;99.90;;;;;;5015355;28;20564;-92
2022/08/13 05:12:44;;;;;;;2.20;2.00;;;14.50;99.90;;;;;;5018565;28;20477;-93
2022/08/13 05:15:18;;;;;;;2.03;1.83;;;14.60;99.90;;;;;;5034397;28;20472;-93
2022/08/13 05:17:54;;;;;;;2.23;1.83;;;14.60;99.90;;;;;;5038833;28;20488;-93
2022/08/13 05:20:29;;;;;;;2.60;2.20;;;14.60;99.90;;;;;;5036106;28;20472;-92
2022/08/13 05:28:53;;;;;;;2.00;1.87;;;14.80;99.90;;;;;;5033184;28;20469;-92
2022/08/13 05:32:05;;;;;;;2.30;2.10;;;14.80;99.90;;;;;;5033161;28;20552;-92
2022/08/13 05:41:00;;;;;;;2.30;1.80;;;15.20;99.90;;;;;;5012595;28;20918;-94
2022/08/13 05:43:33;;;;;;;2.10;1.90;;;15.30;99.90;;;;;;5034697;28;20496;-94
2022/08/13 05:46:05;;;;;;;1.87;1.77;;;15.30;99.90;;;;;;5034047;28;20560;-95
2022/08/13 05:48:39;;;;;;;3.07;2.40;;;15.40;99.90;;;;;;5033770;28;20548;-95
2022/08/13 05:51:10;;;;;;;2.30;2.10;;;15.50;99.90;;;;;;5033498;28;20471;-92
2022/08/13 05:53:47;;;;;;;2.13;2.00;;;15.60;99.90;;;;;;5033914;28;20517;-93
2022/08/13 05:56:21;;;;;;;2.27;2.10;;;15.70;99.90;;;;;;5035757;28;20456;-93
2022/08/13 05:58:51;;;;;;;2.20;2.00;;;15.70;99.90;;;;;;5027741;28;20461;-93
2022/08/13 06:04:27;;;;;;;2.20;2.07;;;16.00;99.90;;;;;;5027989;28;20436;-92
2022/08/13 06:12:31;;;;;;;2.03;1.83;;;16.30;99.90;;;;;;5023034;28;20989;-93
2022/08/13 06:14:58;;;;;;;2.60;2.37;;;16.40;99.90;;;;;;5030875;28;20457;-93
2022/08/13 06:17:38;;;;;;;1.90;1.80;;;16.50;99.90;;;;;;5027548;28;20488;-93
2022/08/13 06:20:08;;;;;;;2.37;2.17;;;16.60;99.90;;;;;;5031853;28;20466;-93
2022/08/13 06:22:57;;;;;;;2.17;2.00;;;16.70;99.90;;;;;;5031749;28;20460;-92
2022/08/13 06:25:35;;;;;;;1.80;1.70;;;16.80;99.90;;;;;;5034740;28;20472;-94
2022/08/13 06:28:05;;;;;;;2.00;1.90;;;16.90;99.90;;;;;;5041022;28;20473;-94
2022/08/13 06:30:36;;;;;;;1.90;1.80;;;17.10;99.90;;;;;;5043909;28;20488;-94
2022/08/13 06:33:05;;;;;;;2.00;1.87;;;17.20;99.90;;;;;;5041264;28;20473;-95
2022/08/13 06:35:34;;;;;;;2.37;1.80;;;17.30;99.90;;;;;;5039960;28;20482;-94
2022/08/13 06:38:06;;;;;;;1.90;1.80;;;17.40;99.90;;;;;;5043094;28;20478;-93
2022/08/13 06:40:35;;;;;;;2.30;2.10;;;17.50;99.90;;;;;;5061673;23;20457;-68
2022/08/13 06:43:02;;;;;;;1.70;1.60;;;17.50;99.90;;;;;;5020249;28;20489;-67
2022/08/13 06:45:29;;;;;;;1.80;1.70;;;17.60;99.90;;;;;;5018234;28;20490;-68
2022/08/13 06:47:57;;;;;;;1.90;1.80;;;17.60;99.70;;;;;;5015027;28;20469;-68
2022/08/13 06:50:25;;;;;;;1.80;1.70;;;17.70;99.50;;;;;;5017164;28;20492;-69
2022/08/13 06:52:53;;;;;;;1.90;1.80;;;17.80;99.20;;;;;;5017718;28;20524;-71
2022/08/13 06:55:19;;;;;;;2.10;2.00;;;17.90;99.20;;;;;;5018689;28;20812;-71
2022/08/13 06:57:47;;;;;;;2.37;2.17;;;18.00;99.20;;;;;;5016098;28;20473;-70
2022/08/13 07:00:15;;;;;;;1.80;1.70;;;18.10;98.80;;;;;;5013678;28;20474;-69
2022/08/13 07:02:42;;;;;;;2.27;2.07;;;18.10;98.50;;;;;;5009754;28;20851;-69
2022/08/13 07:05:09;;;;;;;2.43;1.93;;;18.20;98.50;;;;;;5009488;28;20494;-69
2022/08/13 07:07:44;;;;;;;1.90;1.80;;;18.30;98.30;;;;;;5010348;28;20517;-69
2022/08/13 07:10:14;;;;;;;2.40;2.20;;;18.40;98.60;;;;;;5009707;28;20457;-69
2022/08/13 07:12:42;;;;;;;2.33;1.80;;;18.50;98.20;;;;;;5010282;28;20543;-69
2022/08/13 07:15:15;;;;;;;2.27;2.07;;;18.60;97.90;;;;;;5009938;28;20501;-69
2022/08/13 07:17:44;;;;;;;2.23;2.03;;;18.60;98.00;;;;;;5009612;28;20860;-69
2022/08/13 07:20:11;;;;;;;3.50;1.80;;;18.70;98.20;;;;;;5018883;28;20545;-69
2022/08/13 07:22:38;;;;;;;2.63;2.00;;;18.80;98.30;;;;;;5011590;28;20849;-70
2022/08/13 07:25:05;;;;;;;2.20;1.93;;;18.90;98.10;;;;;;5008432;28;20494;-69
2022/08/13 07:27:34;;;;;;;2.00;1.90;;;19.00;97.90;;;;;;5009266;28;20481;-69
2022/08/13 07:30:02;;;;;;;2.30;2.10;;;19.10;97.90;;;;;;5009163;28;20816;-69
2022/08/13 07:32:29;;;;;;;2.80;2.03;;;19.20;98.20;;;;;;5009211;28;20472;-69
2022/08/13 07:34:58;;;;;;;2.77;2.20;;;19.30;98.20;;;;;;5008964;28;20465;-69
2022/08/13 07:37:25;;;;;;;2.60;2.17;;;19.40;98.10;;;;;;5009562;28;20493;-69
2022/08/13 07:39:52;;;;;;;2.33;2.13;;;19.40;98.10;;;;;;5008239;28;20465;-69
2022/08/13 07:42:21;;;;;;;2.73;2.37;;;19.50;98.00;;;;;;5009410;28;20466;-68
2022/08/13 07:44:52;;;;;;;3.40;2.00;;;19.60;98.20;;;;;;5008656;28;20468;-69
2022/08/13 07:47:20;;;;;;;2.00;1.83;;;19.80;97.00;;;;;;5008796;28;20487;-68
2022/08/13 07:49:47;;;;;;;2.13;2.03;;;19.90;97.20;;;;;;5008858;28;20462;-68
2022/08/13 07:52:14;;;;;;;2.17;2.00;;;20.00;96.60;;;;;;5009361;28;21003;-69
2022/08/13 07:54:43;;;;;;;2.30;2.10;;;20.10;97.50;;;;;;5009724;28;20513;-70
2022/08/13 07:57:10;;;;;;;3.67;2.00;;;20.30;97.90;;;;;;5012608;28;20478;-69
2022/08/13 07:59:37;;;;;;;2.43;2.10;;;20.30;96.80;;;;;;5010919;28;20461;-68
2022/08/13 08:02:06;;;;;;;2.40;2.20;;;20.40;97.30;;;;;;5009659;28;20470;-69
2022/08/13 08:04:35;;;;;;;2.33;2.23;;;20.60;96.00;;;;;;5011991;28;20545;-69
2022/08/13 08:07:03;;;;;;;2.30;2.20;;;20.70;96.10;;;;;;5011514;28;20490;-68
2022/08/13 08:09:30;;;;;;;2.57;2.37;;;20.80;96.20;;;;;;5012024;28;20469;-69
2022/08/13 08:14:42;;;;;;;2.23;2.03;;;20.90;96.30;;;;;;5007645;28;20485;-68
2022/08/13 08:17:11;;;;;;;2.00;1.80;;;21.10;96.40;;;;;;5011560;28;20490;-69
2022/08/13 08:19:39;;;;;;;3.30;2.27;;;21.20;96.20;;;;;;5012322;28;20467;-69
2022/08/13 08:22:07;;;;;;;2.97;2.30;;;21.30;96.10;;;;;;5012918;28;20496;-69
2022/08/13 08:24:34;;;;;;;1.90;1.80;;;21.50;96.10;;;;;;5012190;28;20810;-69
2022/08/13 08:27:03;;;;;;;2.10;1.90;;;21.60;95.70;;;;;;5012455;28;20510;-69
2022/08/13 08:29:33;;;;;;;2.43;2.23;;;21.70;95.30;;;;;;5012802;28;20467;-69
2022/08/13 08:32:00;;;;;;;1.93;1.73;;;21.90;94.60;;;;;;5012506;28;20471;-69
2022/08/13 08:34:29;;;;;;;2.30;2.10;;;22.00;94.80;;;;;;5012215;28;20487;-69
2022/08/13 08:36:56;;;;;;;2.20;2.00;;;22.10;94.70;;;;;;5011631;28;20495;-69
2022/08/13 08:44:56;;;;;;;2.40;2.03;;;22.50;94.20;;;;;;5011412;28;20840;-69
2022/08/13 08:47:28;;;;;;;2.10;2.00;;;22.60;94.20;;;;;;5011683;28;20579;-68
2022/08/13 08:49:57;;;;;;;2.17;2.00;;;22.70;94.60;;;;;;5011183;28;20853;-69
2022/08/13 08:53:19;;;;;;;2.80;1.77;;;22.80;93.90;;;;;;5011388;28;20901;-69
2022/08/13 08:55:14;;;;;;;2.50;2.30;;;22.90;94.40;;;;;;5010629;28;20456;-68
2022/08/13 08:57:44;;;;;;;2.20;2.00;;;22.90;93.30;;;;;;5011480;28;21073;-68
2022/08/13 09:00:14;;;;;;;2.10;1.83;;;22.80;93.50;;;;;;5011456;28;20924;-69
2022/08/13 09:02:41;;;;;;;1.90;1.80;;;22.80;93.70;;;;;;5011275;28;20550;-69
2022/08/13 09:05:13;;;;;;;1.90;1.70;;;22.80;93.90;;;;;;5010656;28;20463;-69
2022/08/13 09:07:41;;;;;;;1.90;1.80;;;22.70;93.30;;;;;;5010479;28;20485;-69
2022/08/13 09:10:10;;;;;;;1.80;1.70;;;22.70;92.40;;;;;;5010812;28;20463;-69
2022/08/13 09:12:42;;;;;;;1.80;1.70;;;22.60;92.90;;;;;;5007180;28;20463;-69
2022/08/13 09:15:10;;;;;;;2.10;2.00;;;22.50;93.70;;;;;;5005850;28;20491;-69
2022/08/13 09:17:43;;;;;;;2.33;2.00;;;22.50;93.60;;;;;;5006664;28;20494;-69
2022/08/13 09:20:28;;;;;;;2.80;2.20;;;22.50;93.50;;;;;;5006261;28;20576;-69
2022/08/13 09:23:03;;;;;;;1.87;1.77;;;22.60;93.50;;;;;;5005773;28;20509;-69
2022/08/13 09:25:31;;;;;;;2.13;1.93;;;22.70;94.00;;;;;;5005621;28;20469;-68
2022/08/13 09:27:58;;;;;;;2.13;1.93;;;22.90;93.30;;;;;;5006189;28;20491;-69
2022/08/13 09:30:25;;;;;;;2.27;1.67;;;23.00;92.90;;;;;;5004250;28;20472;-69
2022/08/13 09:32:54;;;;;;;2.30;1.93;;;23.10;93.00;;;;;;5006695;28;20984;-69
2022/08/13 09:35:22;;;;;;;2.20;1.83;;;23.10;92.90;;;;;;5005102;28;20483;-69
2022/08/13 09:37:50;;;;;;;2.50;2.30;;;23.10;93.40;;;;;;5005982;28;21005;-69
2022/08/13 09:40:18;;;;;;;6.10;2.00;;;23.10;92.80;;;;;;5006779;28;20467;-69
2022/08/13 09:42:51;;;;;;;2.50;2.27;;;23.10;93.30;;;;;;5006177;28;20554;-68
2022/08/13 09:45:18;;;;;;;2.67;1.90;;;23.20;93.60;;;;;;5006565;28;21030;-68
2022/08/13 09:47:45;;;;;;;2.27;2.07;;;23.30;94.30;;;;;;5008794;28;20492;-68
2022/08/13 09:50:12;;;;;;;1.77;1.67;;;23.60;94.70;;;;;;5008611;28;20463;-69
2022/08/13 09:52:40;;;;;;;2.30;2.03;;;23.90;93.80;;;;;;5007377;28;21045;-68
2022/08/13 09:55:07;;;;;;;2.10;1.90;;;24.20;94.40;;;;;;5008989;28;20492;-69
2022/08/13 09:57:49;;;;;;;2.27;2.07;;;24.40;94.20;;;;;;5009872;28;20493;-69
2022/08/13 10:00:20;;;;;;;2.20;2.00;;;24.50;93.80;;;;;;5009813;28;20508;-69
2022/08/13 10:02:50;;;;;;;2.20;2.00;;;24.60;93.10;;;;;;5009534;28;20531;-68
2022/08/13 10:05:18;;;;;;;1.90;1.80;;;24.70;93.00;;;;;;5009994;28;20466;-69
2022/08/13 10:07:46;;;;;;;2.70;2.50;;;24.90;92.80;;;;;;5006858;28;20583;-69
2022/08/13 10:10:13;;;;;;;2.13;1.93;;;24.90;92.10;;;;;;5009566;28;20491;-69
2022/08/13 10:12:40;;;;;;;2.10;1.90;;;24.80;90.60;;;;;;5010263;28;20489;-69
2022/08/13 10:15:09;;;;;;;2.57;2.37;;;24.70;91.40;;;;;;5009861;28;20492;-69
2022/08/13 10:17:48;;;;;;;2.30;2.10;;;24.80;90.40;;;;;;5009112;28;20496;-69
2022/08/13 10:20:16;;;;;;;3.47;2.43;;;24.80;90.40;;;;;;5009557;28;20468;-68
2022/08/13 10:22:44;;;;;;;2.30;2.10;;;24.90;90.60;;;;;;5009216;28;20613;-69
2022/08/13 10:25:13;;;;;;;1.60;1.50;;;24.90;90.90;;;;;;5006035;28;20523;-69
2022/08/13 10:27:40;;;;;;;2.33;2.13;;;24.90;90.80;;;;;;5009890;28;20480;-69
2022/08/13 10:30:07;;;;;;;2.30;2.10;;;24.90;90.30;;;;;;5008483;28;20866;-68
2022/08/13 10:32:34;;;;;;;1.80;1.70;;;25.10;91.00;;;;;;5005567;28;20526;-69
2022/08/13 10:35:02;;;;;;;2.23;2.03;;;25.00;89.30;;;;;;5007523;28;20988;-68
2022/08/13 10:37:29;;;;;;;1.80;1.70;;;24.90;90.70;;;;;;5009417;28;20492;-68
2022/08/13 10:39:56;;;;;;;3.10;2.33;;;24.90;90.50;;;;;;5008819;28;20494;-69
2022/08/13 10:42:25;;;;;;;2.23;2.03;;;24.90;87.40;;;;;;5008705;28;20512;-69
2022/08/13 10:44:52;;;;;;;2.20;1.83;;;24.80;90.10;;;;;;5007896;28;20877;-68
2022/08/13 10:47:20;;;;;;;3.70;2.00;;;24.80;90.20;;;;;;5009714;28;20524;-69
2022/08/13 10:49:49;;;;;;;2.43;2.13;;;24.70;90.10;;;;;;5009766;28;20838;-69
2022/08/13 10:52:16;;;;;;;2.17;1.60;;;24.70;87.10;;;;;;5009184;28;20555;-69
2022/08/13 10:54:43;;;;;;;2.23;2.03;;;24.70;90.00;;;;;;5008805;28;20498;-69
2022/08/13 10:57:11;;;;;;;1.80;1.70;;;24.60;90.30;;;;;;5009241;28;20543;-69
2022/08/13 10:59:40;;;;;;;2.63;2.20;;;24.50;89.60;;;;;;5007269;28;20475;-69
2022/08/13 11:02:08;;;;;;;3.63;1.97;;;24.40;89.50;;;;;;5009614;28;20902;-69
2022/08/13 11:04:36;;;;;;;5.20;4.27;;;24.40;89.70;;;;;;5006709;28;20465;-70
2022/08/13 11:07:03;;;;;;;3.00;2.80;;;24.50;90.10;;;;;;5009283;28;20586;-69
2022/08/13 11:09:30;;;;;;;2.30;2.00;;;24.70;90.80;;;;;;5039919;23;20483;-91
2022/08/13 11:11:58;;;;;;;2.27;2.07;;;25.00;88.30;;;;;;5034127;28;20457;-92
2022/08/13 11:14:25;;;;;;;2.10;1.87;;;25.40;90.40;;;;;;5042533;28;20487;-92
2022/08/13 11:16:59;;;;;;;2.60;1.90;;;25.80;86.00;;;;;;5042075;28;20522;-91
2022/08/13 11:19:29;;;;;;;2.23;2.00;;;26.10;90.10;;;;;;5044132;28;20493;-91
2022/08/13 11:21:57;;;;;;;2.10;1.90;;;26.40;89.20;;;;;;5046384;28;20453;-92
2022/08/13 11:24:24;;;;;;;2.27;2.07;;;26.70;90.00;;;;;;5042739;28;20460;-93
2022/08/13 11:26:50;;;;;;;2.20;2.00;;;27.00;87.40;;;;;;5044725;28;20461;-92
2022/08/13 11:29:17;;;;;;;2.47;2.27;;;27.20;87.50;;;;;;5049671;28;20473;-92
2022/08/13 11:31:44;;;;;;;3.97;2.47;;;27.40;86.00;;;;;;5053439;28;20449;-92
2022/08/13 11:34:12;;;;;;;3.23;2.50;;;27.50;85.50;;;;;;5053075;28;20488;-91
2022/08/13 11:36:39;;;;;;;4.03;3.70;;;27.70;86.10;;;;;;5054005;28;20461;-91
2022/08/13 11:39:07;;;;;;;3.30;2.90;;;27.80;85.20;;;;;;5050643;28;20472;-93
2022/08/13 11:41:34;;;;;;;3.83;3.53;;;27.90;81.60;;;;;;5047045;28;20996;-92
2022/08/13 11:44:00;;;;;;;2.97;2.67;;;27.90;81.00;;;;;;5049564;28;20457;-91
2022/08/13 11:46:27;;;;;;;2.60;2.40;;;27.90;81.90;;;;;;5046063;28;20837;-92
2022/08/13 11:48:54;;;;;;;2.23;2.10;;;28.00;83.40;;;;;;5051197;28;20487;-94
2022/08/13 11:51:23;;;;;;;1.80;1.70;;;28.10;82.20;;;;;;5054701;28;20449;-95
2022/08/13 11:53:49;;;;;;;1.87;1.70;;;28.30;80.10;;;;;;5058136;28;20481;-92
2022/08/13 11:56:16;;;;;;;2.80;2.20;;;28.30;79.60;;;;;;5059717;28;20441;-93
2022/08/13 11:58:43;;;;;;;3.93;2.27;;;28.40;79.70;;;;;;5055242;28;20472;-92
2022/08/13 12:01:10;;;;;;;1.70;1.60;;;28.50;82.10;;;;;;5019946;28;20470;-93
2022/08/13 12:03:39;;;;;;;2.13;1.97;;;28.60;81.70;;;;;;5019337;28;20803;-93
2022/08/13 12:06:06;;;;;;;2.17;1.97;;;28.60;82.30;;;;;;5026086;28;20458;-91
2022/08/13 12:08:34;;;;;;;3.97;2.47;;;28.70;78.60;;;;;;5032076;28;20465;-90
2022/08/13 12:11:01;;;;;;;2.03;1.60;;;28.70;81.20;;;;;;5020205;28;20485;-91
2022/08/13 12:13:28;;;;;;;2.00;1.80;;;28.90;82.30;;;;;;5024616;28;20461;-92
2022/08/13 12:15:54;;;;;;;2.00;1.80;;;28.90;82.30;;;;;;5030196;28;20485;-90
2022/08/13 12:18:22;;;;;;;1.97;1.87;;;29.00;78.90;;;;;;5025788;28;20461;-92
2022/08/13 12:20:49;;;;;;;1.80;1.70;;;29.00;78.90;;;;;;5020079;28;20985;-91
2022/08/13 12:23:16;;;;;;;1.93;1.73;;;29.00;78.00;;;;;;5018002;28;20469;-90
2022/08/13 12:25:44;;;;;;;2.07;1.97;;;29.00;79.20;;;;;;5019511;28;20457;-91
2022/08/13 12:28:17;;;;;;;1.90;1.80;;;28.80;79.70;;;;;;5021161;28;20537;-91
2022/08/13 12:30:46;;;;;;;1.67;1.57;;;28.90;81.00;;;;;;5020633;28;20482;-92
2022/08/13 12:33:13;;;;;;;2.13;1.97;;;29.00;79.80;;;;;;5024119;28;20468;-95
2022/08/13 12:35:39;;;;;;;1.90;1.80;;;29.10;80.20;;;;;;5026483;28;20490;-92
2022/08/13 12:38:11;;;;;;;1.93;1.80;;;29.20;81.40;;;;;;5020435;28;20922;-91
2022/08/13 12:40:39;;;;;;;4.27;1.90;;;29.20;77.40;;;;;;5022635;28;20481;-90
2022/08/13 12:43:08;;;;;;;1.80;1.70;;;29.00;79.00;;;;;;5032676;28;20449;-93
2022/08/13 12:45:37;;;;;;;2.60;2.10;;;28.90;79.20;;;;;;5038412;28;20514;-93
2022/08/13 12:48:08;;;;;;;2.27;2.07;;;29.10;80.00;;;;;;5039051;28;20449;-93
2022/08/13 12:50:39;;;;;;;2.20;1.93;;;29.30;79.90;;;;;;5038181;28;20485;-93
2022/08/13 12:53:06;;;;;;;1.80;1.70;;;29.40;78.70;;;;;;5039476;28;20474;-93
2022/08/13 12:55:34;;;;;;;1.90;1.80;;;29.40;77.30;;;;;;5038846;28;20771;-95
2022/08/13 12:58:13;;;;;;;2.17;1.90;;;29.50;79.40;;;;;;5038989;28;20452;-93
2022/08/13 13:00:40;;;;;;;3.47;1.70;;;29.40;75.80;;;;;;5039333;28;20527;-93
2022/08/13 13:03:07;;;;;;;1.77;1.67;;;29.20;77.80;;;;;;5058621;22;20867;-73
2022/08/13 13:05:34;;;;;;;2.00;1.90;;;28.90;78.10;;;;;;5051749;28;20824;-72
2022/08/13 13:08:01;;;;;;;1.70;1.60;;;28.60;77.40;;;;;;5052418;28;20842;-72
2022/08/13 13:10:27;;;;;;;1.73;1.63;;;28.40;77.90;;;;;;5052638;28;20460;-72
2022/08/13 13:12:54;;;;;;;1.83;1.73;;;28.20;74.20;;;;;;5052505;28;20974;-71
2022/08/13 13:15:22;;;;;;;2.30;2.10;;;27.90;74.00;;;;;;5051895;28;20901;-71
2022/08/13 13:17:49;;;;;;;2.50;2.20;;;27.80;77.90;;;;;;5052096;28;20484;-72
2022/08/13 13:20:15;;;;;;;2.10;2.00;;;27.80;78.30;;;;;;5052202;28;20468;-71
2022/08/13 13:22:42;;;;;;;2.27;2.10;;;27.90;79.20;;;;;;5051928;28;20514;-73
2022/08/13 13:25:09;;;;;;;2.37;2.17;;;27.90;75.90;;;;;;5051633;28;20506;-71
2022/08/13 13:27:37;;;;;;;2.03;1.83;;;28.00;76.10;;;;;;5051830;28;20888;-71
2022/08/13 13:30:08;;;;;;;1.60;1.50;;;28.10;78.80;;;;;;5051989;28;20452;-71
2022/08/13 13:32:36;;;;;;;4.70;2.07;;;28.30;77.90;;;;;;5051880;28;20463;-71
2022/08/13 13:35:03;;;;;;;2.03;1.83;;;28.40;77.00;;;;;;5051357;28;21182;-71
2022/08/13 13:37:40;;;;;;;1.60;1.50;;;28.60;74.60;;;;;;5051910;28;20502;-72